sensor_id;sensor_type;location;lat;lon;timestamp;temperature;humidity
1301;DHT22;59099;48.806;9.160;2022-11-09T00:01:39;11.70;99.90
1301;DHT22;59099;48.806;9.160;2022-11-09T00:04:06;11.70;99.90
1301;DHT22;59099;48.806;9.160;2022-11-09T00:06:33;11.70;99.90
1301;DHT22;59099;48.806;9.160;2022-11-09T00:09:01;11.80;99.90
1301;DHT22;59099;48.806;9.160;2022-11-09T00:11:27;11.80;99.90
1301;DHT22;59099;48.806;9.160;2022-11-09T00:13:53;11.70;99.90
1301;DHT22;59099;48.806;9.160;2022-11-09T00:16:20;11.70;99.90
1301;DHT22;59099;48.806;9.160;2022-11-09T00:18:47;11.80;99.90
1301;DHT22;59099;48.806;9.160;2022-11-09T00:21:21;11.90;99.90
1301;DHT22;59099;48.806;9.160;2022-11-09T00:23:48;11.90;99.90
1301;DHT22;59099;48.806;9.160;2022-11-09T00:26:15;11.90;99.90
1301;DHT22;59099;48.806;9.160;2022-11-09T00:28:41;11.80;99.90
1301;DHT22;59099;48.806;9.160;2022-11-09T00:31:10;11.80;99.90
1301;DHT22;59099;48.806;9.160;2022-11-09T00:33:37;11.70;99.90
1301;DHT22;59099;48.806;9.160;2022-11-09T00:36:05;11.60;99.90
1301;DHT22;59099;48.806;9.160;2022-11-09T00:38:36;11.60;99.90
1301;DHT22;59099;48.806;9.160;2022-11-09T00:41:04;11.60;99.90
1301;DHT22;59099;48.806;9.160;2022-11-09T00:43:30;11.60;99.90
1301;DHT22;59099;48.806;9.160;2022-11-09T00:45:57;11.50;99.90
1301;DHT22;59099;48.806;9.160;2022-11-09T00:48:23;11.50;99.90
1301;DHT22;59099;48.806;9.160;2022-11-09T00:50:53;11.60;99.90
1301;DHT22;59099;48.806;9.160;2022-11-09T00:53:20;11.60;99.90
1301;DHT22;59099;48.806;9.160;2022-11-09T00:55:58;11.60;99.90
1301;DHT22;59099;48.806;9.160;2022-11-09T00:58:26;11.60;99.90
1301;DHT22;59099;48.806;9.160;2022-11-09T01:00:53;11.70;99.90
1301;DHT22;59099;48.806;9.160;2022-11-09T01:03:19;11.80;99.90
1301;DHT22;59099;48.806;9.160;2022-11-09T01:05:45;11.70;99.90
1301;DHT22;59099;48.806;9.160;2022-11-09T01:08:11;11.70;99.90
1301;DHT22;59099;48.806;9.160;2022-11-09T01:10:42;11.60;99.90
1301;DHT22;59099;48.806;9.160;2022-11-09T01:13:10;11.60;99.90
1301;DHT22;59099;48.806;9.160;2022-11-09T01:15:44;11.60;99.90
1301;DHT22;59099;48.806;9.160;2022-11-09T01:18:10;11.60;99.90
1301;DHT22;59099;48.806;9.160;2022-11-09T01:20:45;11.70;99.90
1301;DHT22;59099;48.806;9.160;2022-11-09T01:23:13;11.70;99.90
1301;DHT22;59099;48.806;9.160;2022-11-09T01:25:39;11.70;99.90
1301;DHT22;59099;48.806;9.160;2022-11-09T01:28:06;11.60;99.90
1301;DHT22;59099;48.806;9.160;2022-11-09T01:30:38;11.70;99.90
1301;DHT22;59099;48.806;9.160;2022-11-09T01:33:05;11.70;99.90
1301;DHT22;59099;48.806;9.160;2022-11-09T01:35:37;11.70;99.90
1301;DHT22;59099;48.806;9.160;2022-11-09T01:38:04;11.80;99.90
1301;DHT22;59099;48.806;9.160;2022-11-09T01:40:33;11.80;99.90
1301;DHT22;59099;48.806;9.160;2022-11-09T01:45:40;11.80;99.90
1301;DHT22;59099;48.806;9.160;2022-11-09T01:48:17;11.70;99.90
1301;DHT22;59099;48.806;9.160;2022-11-09T01:50:52;11.70;99.90
1301;DHT22;59099;48.806;9.160;2022-11-09T01:53:22;11.80;99.90
1301;DHT22;59099;48.806;9.160;2022-11-09T01:55:53;11.80;99.90
1301;DHT22;59099;48.806;9.160;2022-11-09T01:58:30;11.80;99.90
1301;DHT22;59099;48.806;9.160;2022-11-09T02:00:59;11.80;99.90
1301;DHT22;59099;48.806;9.160;2022-11-09T02:03:33;11.90;99.90
1301;DHT22;59099;48.806;9.160;2022-11-09T02:06:03;11.90;99.90
1301;DHT22;59099;48.806;9.160;2022-11-09T02:08:30;11.90;99.90
1301;DHT22;59099;48.806;9.160;2022-11-09T02:11:10;11.90;99.90
1301;DHT22;59099;48.806;9.160;2022-11-09T02:13:44;12.00;99.90
1301;DHT22;59099;48.806;9.160;2022-11-09T02:16:12;12.00;99.90
1301;DHT22;59099;48.806;9.160;2022-11-09T02:19:00;12.00;99.90
1301;DHT22;59099;48.806;9.160;2022-11-09T02:21:32;12.00;99.90
1301;DHT22;59099;48.806;9.160;2022-11-09T02:23:59;12.00;99.90
1301;DHT22;59099;48.806;9.160;2022-11-09T02:28:58;12.00;99.90
1301;DHT22;59099;48.806;9.160;2022-11-09T02:31:33;12.10;99.90
1301;DHT22;59099;48.806;9.160;2022-11-09T02:34:07;12.10;99.90
1301;DHT22;59099;48.806;9.160;2022-11-09T02:36:33;12.10;99.90
1301;DHT22;59099;48.806;9.160;2022-11-09T02:39:02;12.20;99.90
1301;DHT22;59099;48.806;9.160;2022-11-09T02:41:29;12.50;99.90
1301;DHT22;59099;48.806;9.160;2022-11-09T02:43:59;12.60;99.90
1301;DHT22;59099;48.806;9.160;2022-11-09T02:46:35;12.80;99.90
1301;DHT22;59099;48.806;9.160;2022-11-09T02:49:01;12.90;99.90
1301;DHT22;59099;48.806;9.160;2022-11-09T02:51:28;13.10;99.90
1301;DHT22;59099;48.806;9.160;2022-11-09T02:53:55;13.20;99.90
1301;DHT22;59099;48.806;9.160;2022-11-09T02:56:22;13.10;99.90
1301;DHT22;59099;48.806;9.160;2022-11-09T02:58:48;13.20;99.90
1301;DHT22;59099;48.806;9.160;2022-11-09T03:01:16;13.30;99.90
1301;DHT22;59099;48.806;9.160;2022-11-09T03:03:43;13.40;99.90
1301;DHT22;59099;48.806;9.160;2022-11-09T03:06:08;13.40;99.90
1301;DHT22;59099;48.806;9.160;2022-11-09T03:08:35;13.40;99.90
1301;DHT22;59099;48.806;9.160;2022-11-09T03:11:08;13.40;99.90
1301;DHT22;59099;48.806;9.160;2022-11-09T03:13:35;13.50;99.90
1301;DHT22;59099;48.806;9.160;2022-11-09T03:16:05;13.50;99.90
1301;DHT22;59099;48.806;9.160;2022-11-09T03:18:35;13.50;99.90
1301;DHT22;59099;48.806;9.160;2022-11-09T03:21:05;13.40;99.90
1301;DHT22;59099;48.806;9.160;2022-11-09T03:23:32;13.30;99.90
1301;DHT22;59099;48.806;9.160;2022-11-09T03:25:59;13.20;99.90
1301;DHT22;59099;48.806;9.160;2022-11-09T03:28:25;13.00;99.90
1301;DHT22;59099;48.806;9.160;2022-11-09T03:30:52;13.00;99.90
1301;DHT22;59099;48.806;9.160;2022-11-09T03:33:18;12.90;99.90
1301;DHT22;59099;48.806;9.160;2022-11-09T03:35:44;12.80;99.90
1301;DHT22;59099;48.806;9.160;2022-11-09T03:38:14;12.80;99.90
1301;DHT22;59099;48.806;9.160;2022-11-09T03:40:40;12.70;99.90
1301;DHT22;59099;48.806;9.160;2022-11-09T03:43:07;12.50;99.90
1301;DHT22;59099;48.806;9.160;2022-11-09T03:45:32;12.40;99.90
1301;DHT22;59099;48.806;9.160;2022-11-09T03:47:58;12.50;99.90
1301;DHT22;59099;48.806;9.160;2022-11-09T03:50:28;12.40;99.90
1301;DHT22;59099;48.806;9.160;2022-11-09T03:52:54;12.30;99.90
1301;DHT22;59099;48.806;9.160;2022-11-09T03:55:21;12.30;99.90
1301;DHT22;59099;48.806;9.160;2022-11-09T03:57:47;12.20;99.90
1301;DHT22;59099;48.806;9.160;2022-11-09T04:00:15;12.20;99.90
1301;DHT22;59099;48.806;9.160;2022-11-09T04:02:43;12.20;99.90
1301;DHT22;59099;48.806;9.160;2022-11-09T04:05:10;12.20;99.90
1301;DHT22;59099;48.806;9.160;2022-11-09T04:07:36;12.30;99.90
1301;DHT22;59099;48.806;9.160;2022-11-09T04:10:04;12.20;99.90
1301;DHT22;59099;48.806;9.160;2022-11-09T04:12:29;12.20;99.90
1301;DHT22;59099;48.806;9.160;2022-11-09T04:14:55;12.10;99.90
1301;DHT22;59099;48.806;9.160;2022-11-09T04:17:21;12.10;99.90
1301;DHT22;59099;48.806;9.160;2022-11-09T04:19:47;12.00;99.90
1301;DHT22;59099;48.806;9.160;2022-11-09T04:22:13;12.00;99.90
1301;DHT22;59099;48.806;9.160;2022-11-09T04:24:38;12.10;99.90
1301;DHT22;59099;48.806;9.160;2022-11-09T04:27:07;12.00;99.90
1301;DHT22;59099;48.806;9.160;2022-11-09T04:29:32;12.10;99.90
1301;DHT22;59099;48.806;9.160;2022-11-09T04:31:58;12.20;99.90
1301;DHT22;59099;48.806;9.160;2022-11-09T04:34:25;12.30;99.90
1301;DHT22;59099;48.806;9.160;2022-11-09T04:36:50;12.20;99.90
1301;DHT22;59099;48.806;9.160;2022-11-09T04:39:16;12.10;99.90
1301;DHT22;59099;48.806;9.160;2022-11-09T04:41:42;12.00;99.90
1301;DHT22;59099;48.806;9.160;2022-11-09T04:44:08;12.00;99.90
1301;DHT22;59099;48.806;9.160;2022-11-09T04:46:33;11.90;99.90
1301;DHT22;59099;48.806;9.160;2022-11-09T04:48:59;11.90;99.90
1301;DHT22;59099;48.806;9.160;2022-11-09T04:51:25;11.90;99.90
1301;DHT22;59099;48.806;9.160;2022-11-09T04:53:51;11.90;99.90
1301;DHT22;59099;48.806;9.160;2022-11-09T04:56:17;11.90;99.90
1301;DHT22;59099;48.806;9.160;2022-11-09T04:58:42;11.90;99.90
1301;DHT22;59099;48.806;9.160;2022-11-09T05:01:12;11.90;99.90
1301;DHT22;59099;48.806;9.160;2022-11-09T05:03:39;11.90;99.90
1301;DHT22;59099;48.806;9.160;2022-11-09T05:06:05;11.80;99.90
1301;DHT22;59099;48.806;9.160;2022-11-09T05:08:54;11.80;99.90
1301;DHT22;59099;48.806;9.160;2022-11-09T05:11:21;11.80;99.90
1301;DHT22;59099;48.806;9.160;2022-11-09T05:13:47;11.80;99.90
1301;DHT22;59099;48.806;9.160;2022-11-09T05:16:14;11.80;99.90
1301;DHT22;59099;48.806;9.160;2022-11-09T05:18:42;11.70;99.90
1301;DHT22;59099;48.806;9.160;2022-11-09T05:21:09;11.70;99.90
1301;DHT22;59099;48.806;9.160;2022-11-09T05:23:34;11.70;99.90
1301;DHT22;59099;48.806;9.160;2022-11-09T05:26:19;11.70;99.90
1301;DHT22;59099;48.806;9.160;2022-11-09T05:28:45;11.60;99.90
1301;DHT22;59099;48.806;9.160;2022-11-09T05:31:10;11.70;99.90
1301;DHT22;59099;48.806;9.160;2022-11-09T05:33:36;11.70;99.90
1301;DHT22;59099;48.806;9.160;2022-11-09T05:36:02;11.60;99.90
1301;DHT22;59099;48.806;9.160;2022-11-09T05:38:28;11.60;99.90
1301;DHT22;59099;48.806;9.160;2022-11-09T05:40:54;11.50;99.90
1301;DHT22;59099;48.806;9.160;2022-11-09T05:43:20;11.50;99.90
1301;DHT22;59099;48.806;9.160;2022-11-09T05:45:46;11.50;99.90
1301;DHT22;59099;48.806;9.160;2022-11-09T05:48:14;11.50;99.90
1301;DHT22;59099;48.806;9.160;2022-11-09T05:50:40;11.40;99.90
1301;DHT22;59099;48.806;9.160;2022-11-09T05:53:22;11.50;99.90
1301;DHT22;59099;48.806;9.160;2022-11-09T05:55:48;11.40;99.90
1301;DHT22;59099;48.806;9.160;2022-11-09T05:58:13;11.40;99.90
1301;DHT22;59099;48.806;9.160;2022-11-09T06:00:39;11.40;99.90
1301;DHT22;59099;48.806;9.160;2022-11-09T06:03:10;11.40;99.90
1301;DHT22;59099;48.806;9.160;2022-11-09T06:05:37;11.40;99.90
1301;DHT22;59099;48.806;9.160;2022-11-09T06:08:08;11.40;99.90
1301;DHT22;59099;48.806;9.160;2022-11-09T06:10:34;11.40;99.90
1301;DHT22;59099;48.806;9.160;2022-11-09T06:13:00;11.40;99.90
1301;DHT22;59099;48.806;9.160;2022-11-09T06:15:26;11.30;99.90
1301;DHT22;59099;48.806;9.160;2022-11-09T06:17:56;11.30;99.90
1301;DHT22;59099;48.806;9.160;2022-11-09T06:20:23;11.30;99.90
1301;DHT22;59099;48.806;9.160;2022-11-09T06:23:00;11.40;99.90
1301;DHT22;59099;48.806;9.160;2022-11-09T06:25:27;11.40;99.90
1301;DHT22;59099;48.806;9.160;2022-11-09T06:27:53;11.40;99.90
1301;DHT22;59099;48.806;9.160;2022-11-09T06:30:20;11.40;99.90
1301;DHT22;59099;48.806;9.160;2022-11-09T06:32:46;11.40;99.90
1301;DHT22;59099;48.806;9.160;2022-11-09T06:35:13;11.40;99.90
1301;DHT22;59099;48.806;9.160;2022-11-09T06:37:39;11.40;99.90
1301;DHT22;59099;48.806;9.160;2022-11-09T06:40:05;11.30;99.90
1301;DHT22;59099;48.806;9.160;2022-11-09T06:42:34;11.40;99.90
1301;DHT22;59099;48.806;9.160;2022-11-09T06:45:00;11.40;99.90
1301;DHT22;59099;48.806;9.160;2022-11-09T06:47:26;11.40;99.90
1301;DHT22;59099;48.806;9.160;2022-11-09T06:49:53;11.40;99.90
1301;DHT22;59099;48.806;9.160;2022-11-09T06:52:19;11.40;99.90
1301;DHT22;59099;48.806;9.160;2022-11-09T06:54:45;11.40;99.90
1301;DHT22;59099;48.806;9.160;2022-11-09T06:57:10;11.40;99.90
1301;DHT22;59099;48.806;9.160;2022-11-09T06:59:36;11.50;99.90
1301;DHT22;59099;48.806;9.160;2022-11-09T07:02:02;11.50;99.90
1301;DHT22;59099;48.806;9.160;2022-11-09T07:04:28;11.50;99.90
1301;DHT22;59099;48.806;9.160;2022-11-09T07:06:54;11.60;99.90
1301;DHT22;59099;48.806;9.160;2022-11-09T07:09:20;11.60;99.90
1301;DHT22;59099;48.806;9.160;2022-11-09T07:11:47;11.70;99.90
1301;DHT22;59099;48.806;9.160;2022-11-09T07:14:13;11.90;99.90
1301;DHT22;59099;48.806;9.160;2022-11-09T07:16:39;11.90;99.90
1301;DHT22;59099;48.806;9.160;2022-11-09T07:19:05;11.80;99.90
1301;DHT22;59099;48.806;9.160;2022-11-09T07:21:33;11.80;99.90
1301;DHT22;59099;48.806;9.160;2022-11-09T07:23:59;11.60;99.90
1301;DHT22;59099;48.806;9.160;2022-11-09T07:26:25;11.70;99.90
1301;DHT22;59099;48.806;9.160;2022-11-09T07:28:52;11.70;99.90
1301;DHT22;59099;48.806;9.160;2022-11-09T07:31:17;11.70;99.90
1301;DHT22;59099;48.806;9.160;2022-11-09T07:33:43;11.70;99.90
1301;DHT22;59099;48.806;9.160;2022-11-09T07:36:09;11.70;99.90
1301;DHT22;59099;48.806;9.160;2022-11-09T07:38:34;11.80;99.90
1301;DHT22;59099;48.806;9.160;2022-11-09T07:41:01;11.80;99.90
1301;DHT22;59099;48.806;9.160;2022-11-09T07:43:28;11.90;99.90
1301;DHT22;59099;48.806;9.160;2022-11-09T07:45:56;11.90;99.90
1301;DHT22;59099;48.806;9.160;2022-11-09T07:48:22;12.00;99.90
1301;DHT22;59099;48.806;9.160;2022-11-09T07:50:48;12.00;99.90
1301;DHT22;59099;48.806;9.160;2022-11-09T07:53:14;12.00;99.90
1301;DHT22;59099;48.806;9.160;2022-11-09T07:55:41;12.10;99.90
1301;DHT22;59099;48.806;9.160;2022-11-09T07:58:13;12.10;99.90
1301;DHT22;59099;48.806;9.160;2022-11-09T08:00:41;12.10;99.90
1301;DHT22;59099;48.806;9.160;2022-11-09T08:03:07;12.30;99.90
1301;DHT22;59099;48.806;9.160;2022-11-09T08:05:34;12.30;99.90
1301;DHT22;59099;48.806;9.160;2022-11-09T08:08:04;12.40;99.90
1301;DHT22;59099;48.806;9.160;2022-11-09T08:10:30;12.50;99.90
1301;DHT22;59099;48.806;9.160;2022-11-09T08:13:05;12.50;99.90
1301;DHT22;59099;48.806;9.160;2022-11-09T08:15:33;12.50;99.90
1301;DHT22;59099;48.806;9.160;2022-11-09T08:18:01;12.50;99.90
1301;DHT22;59099;48.806;9.160;2022-11-09T08:20:28;12.50;99.90
1301;DHT22;59099;48.806;9.160;2022-11-09T08:22:54;12.50;99.90
1301;DHT22;59099;48.806;9.160;2022-11-09T08:25:20;12.60;99.90
1301;DHT22;59099;48.806;9.160;2022-11-09T08:27:46;12.60;99.90
1301;DHT22;59099;48.806;9.160;2022-11-09T08:30:16;12.60;99.90
1301;DHT22;59099;48.806;9.160;2022-11-09T08:32:43;12.60;99.90
1301;DHT22;59099;48.806;9.160;2022-11-09T08:35:10;12.60;99.90
1301;DHT22;59099;48.806;9.160;2022-11-09T08:37:37;12.60;99.90
1301;DHT22;59099;48.806;9.160;2022-11-09T08:40:04;12.60;99.90
1301;DHT22;59099;48.806;9.160;2022-11-09T08:42:30;12.60;99.90
1301;DHT22;59099;48.806;9.160;2022-11-09T08:44:56;12.60;99.90
1301;DHT22;59099;48.806;9.160;2022-11-09T08:47:22;12.70;99.90
1301;DHT22;59099;48.806;9.160;2022-11-09T08:49:48;12.70;99.90
1301;DHT22;59099;48.806;9.160;2022-11-09T08:52:15;12.70;99.90
1301;DHT22;59099;48.806;9.160;2022-11-09T08:54:42;12.80;99.90
1301;DHT22;59099;48.806;9.160;2022-11-09T08:57:08;12.80;99.90
1301;DHT22;59099;48.806;9.160;2022-11-09T08:59:33;12.80;99.90
1301;DHT22;59099;48.806;9.160;2022-11-09T09:01:59;12.80;99.90
1301;DHT22;59099;48.806;9.160;2022-11-09T09:04:25;12.90;99.90
1301;DHT22;59099;48.806;9.160;2022-11-09T09:06:51;12.90;99.90
1301;DHT22;59099;48.806;9.160;2022-11-09T09:09:17;12.90;99.90
1301;DHT22;59099;48.806;9.160;2022-11-09T09:11:42;13.00;99.90
1301;DHT22;59099;48.806;9.160;2022-11-09T09:14:08;12.90;99.90
1301;DHT22;59099;48.806;9.160;2022-11-09T09:16:34;12.90;99.90
1301;DHT22;59099;48.806;9.160;2022-11-09T09:19:00;13.00;99.90
1301;DHT22;59099;48.806;9.160;2022-11-09T09:21:25;13.00;99.90
1301;DHT22;59099;48.806;9.160;2022-11-09T09:23:51;13.00;99.90
1301;DHT22;59099;48.806;9.160;2022-11-09T09:26:17;13.00;99.90
1301;DHT22;59099;48.806;9.160;2022-11-09T09:28:43;13.10;99.90
1301;DHT22;59099;48.806;9.160;2022-11-09T09:31:09;13.30;99.90
1301;DHT22;59099;48.806;9.160;2022-11-09T09:33:35;13.40;99.90
1301;DHT22;59099;48.806;9.160;2022-11-09T09:36:04;13.40;99.90
1301;DHT22;59099;48.806;9.160;2022-11-09T09:38:30;13.40;99.90
1301;DHT22;59099;48.806;9.160;2022-11-09T09:41:01;13.50;99.90
1301;DHT22;59099;48.806;9.160;2022-11-09T09:43:45;13.50;99.90
1301;DHT22;59099;48.806;9.160;2022-11-09T09:46:47;13.60;99.90
1301;DHT22;59099;48.806;9.160;2022-11-09T09:49:19;13.60;99.90
1301;DHT22;59099;48.806;9.160;2022-11-09T09:55:24;13.80;99.90
1301;DHT22;59099;48.806;9.160;2022-11-09T09:57:44;14.00;99.90
1301;DHT22;59099;48.806;9.160;2022-11-09T10:00:23;14.10;99.90
1301;DHT22;59099;48.806;9.160;2022-11-09T10:02:50;14.30;99.90
1301;DHT22;59099;48.806;9.160;2022-11-09T10:05:18;14.30;99.90
1301;DHT22;59099;48.806;9.160;2022-11-09T10:11:13;14.20;99.90
1301;DHT22;59099;48.806;9.160;2022-11-09T10:16:56;14.30;99.90
1301;DHT22;59099;48.806;9.160;2022-11-09T10:25:26;14.30;99.90
1301;DHT22;59099;48.806;9.160;2022-11-09T10:27:58;14.30;99.90
1301;DHT22;59099;48.806;9.160;2022-11-09T10:30:27;14.30;99.90
1301;DHT22;59099;48.806;9.160;2022-11-09T10:32:56;14.40;99.90
1301;DHT22;59099;48.806;9.160;2022-11-09T10:35:29;14.50;99.90
1301;DHT22;59099;48.806;9.160;2022-11-09T10:37:55;14.70;99.90
1301;DHT22;59099;48.806;9.160;2022-11-09T10:40:40;14.80;99.90
1301;DHT22;59099;48.806;9.160;2022-11-09T10:43:26;15.10;99.90
1301;DHT22;59099;48.806;9.160;2022-11-09T10:46:10;15.40;99.90
1301;DHT22;59099;48.806;9.160;2022-11-09T10:48:54;15.50;99.90
1301;DHT22;59099;48.806;9.160;2022-11-09T10:54:25;15.60;99.90
1301;DHT22;59099;48.806;9.160;2022-11-09T10:57:13;15.50;99.90
1301;DHT22;59099;48.806;9.160;2022-11-09T10:59:59;15.60;99.90
1301;DHT22;59099;48.806;9.160;2022-11-09T11:02:45;15.60;99.90
1301;DHT22;59099;48.806;9.160;2022-11-09T11:05:31;15.70;99.90
1301;DHT22;59099;48.806;9.160;2022-11-09T11:08:28;15.70;99.90
1301;DHT22;59099;48.806;9.160;2022-11-09T11:11:31;15.70;99.90
1301;DHT22;59099;48.806;9.160;2022-11-09T11:14:30;15.80;99.90
1301;DHT22;59099;48.806;9.160;2022-11-09T11:17:35;15.80;99.90
1301;DHT22;59099;48.806;9.160;2022-11-09T11:20:28;15.80;99.90
1301;DHT22;59099;48.806;9.160;2022-11-09T11:23:23;15.90;99.90
1301;DHT22;59099;48.806;9.160;2022-11-09T11:29:49;16.00;99.90
1301;DHT22;59099;48.806;9.160;2022-11-09T11:32:35;16.10;99.90
1301;DHT22;59099;48.806;9.160;2022-11-09T11:35:47;16.00;99.90
1301;DHT22;59099;48.806;9.160;2022-11-09T11:38:40;15.90;99.90
1301;DHT22;59099;48.806;9.160;2022-11-09T11:50:50;15.40;99.90
1301;DHT22;59099;48.806;9.160;2022-11-09T11:53:58;15.40;99.90
1301;DHT22;59099;48.806;9.160;2022-11-09T12:06:22;15.60;99.90
1301;DHT22;59099;48.806;9.160;2022-11-09T12:16:10;15.70;99.90
1301;DHT22;59099;48.806;9.160;2022-11-09T12:31:29;15.80;99.90
1301;DHT22;59099;48.806;9.160;2022-11-09T12:37:31;15.90;99.90
1301;DHT22;59099;48.806;9.160;2022-11-09T12:43:22;15.90;99.90
1301;DHT22;59099;48.806;9.160;2022-11-09T12:46:09;15.90;99.90
1301;DHT22;59099;48.806;9.160;2022-11-09T12:48:56;15.90;99.90
1301;DHT22;59099;48.806;9.160;2022-11-09T12:51:42;15.90;99.90
1301;DHT22;59099;48.806;9.160;2022-11-09T12:54:27;16.00;99.90
1301;DHT22;59099;48.806;9.160;2022-11-09T12:57:15;16.00;99.90
1301;DHT22;59099;48.806;9.160;2022-11-09T13:00:04;16.00;99.90
1301;DHT22;59099;48.806;9.160;2022-11-09T13:02:53;16.10;99.90
1301;DHT22;59099;48.806;9.160;2022-11-09T13:05:39;16.10;99.90
1301;DHT22;59099;48.806;9.160;2022-11-09T13:08:27;16.20;99.90
1301;DHT22;59099;48.806;9.160;2022-11-09T13:11:37;16.10;99.90
1301;DHT22;59099;48.806;9.160;2022-11-09T13:34:56;16.00;99.90
1301;DHT22;59099;48.806;9.160;2022-11-09T13:43:35;16.10;99.90
1301;DHT22;59099;48.806;9.160;2022-11-09T13:46:32;16.10;99.90
1301;DHT22;59099;48.806;9.160;2022-11-09T13:49:43;16.10;99.90
1301;DHT22;59099;48.806;9.160;2022-11-09T13:52:50;16.10;99.90
1301;DHT22;59099;48.806;9.160;2022-11-09T13:55:40;16.10;99.90
1301;DHT22;59099;48.806;9.160;2022-11-09T13:58:36;16.10;99.90
1301;DHT22;59099;48.806;9.160;2022-11-09T14:01:30;16.00;99.90
1301;DHT22;59099;48.806;9.160;2022-11-09T14:07:20;16.10;99.90
1301;DHT22;59099;48.806;9.160;2022-11-09T14:13:22;16.10;99.90
1301;DHT22;59099;48.806;9.160;2022-11-09T14:19:14;15.90;99.90
1301;DHT22;59099;48.806;9.160;2022-11-09T14:22:00;15.90;99.90
1301;DHT22;59099;48.806;9.160;2022-11-09T14:24:45;15.90;99.90
1301;DHT22;59099;48.806;9.160;2022-11-09T14:27:30;15.80;99.90
1301;DHT22;59099;48.806;9.160;2022-11-09T14:30:23;15.80;99.90
1301;DHT22;59099;48.806;9.160;2022-11-09T14:33:20;15.80;99.90
1301;DHT22;59099;48.806;9.160;2022-11-09T14:36:05;15.70;99.90
1301;DHT22;59099;48.806;9.160;2022-11-09T14:38:50;15.70;99.90
1301;DHT22;59099;48.806;9.160;2022-11-09T14:41:34;15.60;99.90
1301;DHT22;59099;48.806;9.160;2022-11-09T14:44:28;15.60;99.90
1301;DHT22;59099;48.806;9.160;2022-11-09T14:47:18;15.60;99.90
1301;DHT22;59099;48.806;9.160;2022-11-09T14:50:07;15.40;99.90
1301;DHT22;59099;48.806;9.160;2022-11-09T14:52:58;15.20;99.90
1301;DHT22;59099;48.806;9.160;2022-11-09T14:55:44;15.20;99.90
1301;DHT22;59099;48.806;9.160;2022-11-09T14:58:30;15.10;99.90
1301;DHT22;59099;48.806;9.160;2022-11-09T15:04:19;14.90;99.90
1301;DHT22;59099;48.806;9.160;2022-11-09T15:07:04;14.80;99.90
1301;DHT22;59099;48.806;9.160;2022-11-09T15:10:00;14.80;99.90
1301;DHT22;59099;48.806;9.160;2022-11-09T15:12:52;14.80;99.90
1301;DHT22;59099;48.806;9.160;2022-11-09T15:15:38;14.70;99.90
1301;DHT22;59099;48.806;9.160;2022-11-09T15:18:26;14.70;99.90
1301;DHT22;59099;48.806;9.160;2022-11-09T15:26:55;14.50;99.90
1301;DHT22;59099;48.806;9.160;2022-11-09T15:29:41;14.50;99.90
1301;DHT22;59099;48.806;9.160;2022-11-09T15:32:26;14.50;99.90
1301;DHT22;59099;48.806;9.160;2022-11-09T15:35:16;14.50;99.90
1301;DHT22;59099;48.806;9.160;2022-11-09T15:38:01;14.50;99.90
1301;DHT22;59099;48.806;9.160;2022-11-09T15:40:46;14.40;99.90
1301;DHT22;59099;48.806;9.160;2022-11-09T15:43:29;14.40;99.90
1301;DHT22;59099;48.806;9.160;2022-11-09T15:46:17;14.40;99.90
1301;DHT22;59099;48.806;9.160;2022-11-09T15:49:15;14.50;99.90
1301;DHT22;59099;48.806;9.160;2022-11-09T15:51:59;14.40;99.90
1301;DHT22;59099;48.806;9.160;2022-11-09T15:54:44;14.50;99.90
1301;DHT22;59099;48.806;9.160;2022-11-09T15:57:29;14.50;99.90
1301;DHT22;59099;48.806;9.160;2022-11-09T16:00:16;14.40;99.90
1301;DHT22;59099;48.806;9.160;2022-11-09T16:03:01;14.30;99.90
1301;DHT22;59099;48.806;9.160;2022-11-09T16:05:45;14.30;99.90
1301;DHT22;59099;48.806;9.160;2022-11-09T16:08:29;14.30;99.90
1301;DHT22;59099;48.806;9.160;2022-11-09T16:11:14;14.40;99.90
1301;DHT22;59099;48.806;9.160;2022-11-09T16:13:59;14.30;99.90
1301;DHT22;59099;48.806;9.160;2022-11-09T16:16:44;14.30;99.90
1301;DHT22;59099;48.806;9.160;2022-11-09T16:19:28;14.30;99.90
1301;DHT22;59099;48.806;9.160;2022-11-09T16:22:12;14.20;99.90
1301;DHT22;59099;48.806;9.160;2022-11-09T16:24:56;14.20;99.90
1301;DHT22;59099;48.806;9.160;2022-11-09T16:27:41;14.10;99.90
1301;DHT22;59099;48.806;9.160;2022-11-09T16:30:26;14.00;99.90
1301;DHT22;59099;48.806;9.160;2022-11-09T16:33:11;14.00;99.90
1301;DHT22;59099;48.806;9.160;2022-11-09T16:35:57;14.00;99.90
1301;DHT22;59099;48.806;9.160;2022-11-09T16:38:45;14.00;99.90
1301;DHT22;59099;48.806;9.160;2022-11-09T16:41:29;14.00;99.90
1301;DHT22;59099;48.806;9.160;2022-11-09T16:44:16;13.80;99.90
1301;DHT22;59099;48.806;9.160;2022-11-09T16:47:03;13.70;99.90
1301;DHT22;59099;48.806;9.160;2022-11-09T16:49:48;13.70;99.90
1301;DHT22;59099;48.806;9.160;2022-11-09T16:52:32;13.70;99.90
1301;DHT22;59099;48.806;9.160;2022-11-09T16:55:16;13.70;99.90
1301;DHT22;59099;48.806;9.160;2022-11-09T16:58:01;13.70;99.90
1301;DHT22;59099;48.806;9.160;2022-11-09T17:00:47;13.80;99.90
1301;DHT22;59099;48.806;9.160;2022-11-09T17:03:32;13.80;99.90
1301;DHT22;59099;48.806;9.160;2022-11-09T17:06:16;13.80;99.90
1301;DHT22;59099;48.806;9.160;2022-11-09T17:09:01;13.80;99.90
1301;DHT22;59099;48.806;9.160;2022-11-09T17:11:45;13.80;99.90
1301;DHT22;59099;48.806;9.160;2022-11-09T17:14:30;13.80;99.90
1301;DHT22;59099;48.806;9.160;2022-11-09T17:17:15;13.80;99.90
1301;DHT22;59099;48.806;9.160;2022-11-09T17:19:59;13.90;99.90
1301;DHT22;59099;48.806;9.160;2022-11-09T17:22:47;13.90;99.90
1301;DHT22;59099;48.806;9.160;2022-11-09T17:25:32;14.00;99.90
1301;DHT22;59099;48.806;9.160;2022-11-09T17:28:16;13.90;99.90
1301;DHT22;59099;48.806;9.160;2022-11-09T17:31:17;13.90;99.90
1301;DHT22;59099;48.806;9.160;2022-11-09T17:34:02;13.90;99.90
1301;DHT22;59099;48.806;9.160;2022-11-09T17:36:47;13.90;99.90
1301;DHT22;59099;48.806;9.160;2022-11-09T17:39:31;13.90;99.90
1301;DHT22;59099;48.806;9.160;2022-11-09T17:42:16;13.90;99.90
1301;DHT22;59099;48.806;9.160;2022-11-09T17:45:00;13.80;99.90
1301;DHT22;59099;48.806;9.160;2022-11-09T17:47:45;13.70;99.90
1301;DHT22;59099;48.806;9.160;2022-11-09T17:50:29;13.80;99.90
1301;DHT22;59099;48.806;9.160;2022-11-09T17:53:13;13.80;99.90
1301;DHT22;59099;48.806;9.160;2022-11-09T17:55:58;13.80;99.90
1301;DHT22;59099;48.806;9.160;2022-11-09T17:58:43;13.80;99.90
1301;DHT22;59099;48.806;9.160;2022-11-09T18:01:28;13.70;99.90
1301;DHT22;59099;48.806;9.160;2022-11-09T18:04:13;13.70;99.90
1301;DHT22;59099;48.806;9.160;2022-11-09T18:06:57;13.80;99.90
1301;DHT22;59099;48.806;9.160;2022-11-09T18:09:42;13.80;99.90
1301;DHT22;59099;48.806;9.160;2022-11-09T18:12:26;13.80;99.90
1301;DHT22;59099;48.806;9.160;2022-11-09T18:15:10;13.70;99.90
1301;DHT22;59099;48.806;9.160;2022-11-09T18:17:54;13.70;99.90
1301;DHT22;59099;48.806;9.160;2022-11-09T18:20:39;13.60;99.90
1301;DHT22;59099;48.806;9.160;2022-11-09T18:23:23;13.50;99.90
1301;DHT22;59099;48.806;9.160;2022-11-09T18:26:08;13.40;99.90
1301;DHT22;59099;48.806;9.160;2022-11-09T18:28:55;13.40;99.90
1301;DHT22;59099;48.806;9.160;2022-11-09T18:31:39;13.30;99.90